createdAt,value
2024-03-12T00:01:10.087Z,8.20
2024-03-12T00:03:43.867Z,7.95
2024-03-12T00:06:12.086Z,8.10
2024-03-12T00:08:40.882Z,8.18
2024-03-12T00:11:09.210Z,7.53
2024-03-12T00:13:37.160Z,8.10
2024-03-12T00:16:06.960Z,8.00
2024-03-12T00:18:35.206Z,8.55
2024-03-12T00:21:02.938Z,8.10
2024-03-12T00:23:31.131Z,7.82
2024-03-12T00:25:58.832Z,8.00
2024-03-12T00:28:26.467Z,8.23
2024-03-12T00:30:55.193Z,8.45
2024-03-12T00:33:26.237Z,8.48
2024-03-12T00:35:53.981Z,8.43
2024-03-12T00:38:21.631Z,8.13
2024-03-12T00:40:51.242Z,8.30
2024-03-12T00:43:19.337Z,9.43
2024-03-12T00:45:47.528Z,8.07
2024-03-12T00:48:15.553Z,8.25
2024-03-12T00:50:46.705Z,8.98
2024-03-12T00:53:15.077Z,8.07
2024-03-12T00:55:43.784Z,7.70
2024-03-12T00:58:13.555Z,8.23
2024-03-12T01:00:42.723Z,8.40
2024-03-12T01:03:11.083Z,8.07
2024-03-12T01:05:39.654Z,8.48
2024-03-12T01:08:10.327Z,8.25
2024-03-12T01:10:38.385Z,8.45
2024-03-12T01:13:10.785Z,8.50
2024-03-12T01:15:39.632Z,7.95
2024-03-12T01:18:09.559Z,7.85
2024-03-12T01:20:37.840Z,8.18
2024-03-12T01:23:07.621Z,8.05
2024-03-12T01:25:38.283Z,8.20
2024-03-12T01:28:08.740Z,7.90
2024-03-12T01:30:37.898Z,8.52
2024-03-12T01:33:07.692Z,8.73
2024-03-12T01:35:39.744Z,7.75
2024-03-12T01:38:09.920Z,8.65
2024-03-12T01:40:39.105Z,8.30
2024-03-12T01:43:08.084Z,9.00
2024-03-12T01:45:36.468Z,9.05
2024-03-12T01:48:09.373Z,8.20
2024-03-12T01:50:38.966Z,8.85
2024-03-12T01:53:07.667Z,8.23
2024-03-12T01:55:38.742Z,8.68
2024-03-12T01:58:08.466Z,8.90
2024-03-12T02:00:36.656Z,8.55
2024-03-12T02:03:05.256Z,8.52
2024-03-12T02:05:33.032Z,8.02
2024-03-12T02:08:01.453Z,8.18
2024-03-12T02:10:29.310Z,8.90
2024-03-12T02:12:57.933Z,8.50
2024-03-12T02:15:27.302Z,8.68
2024-03-12T02:17:55.242Z,8.75
2024-03-12T02:20:23.778Z,8.82
2024-03-12T02:22:54.372Z,9.10
2024-03-12T02:25:24.406Z,9.02
2024-03-12T02:27:52.972Z,8.52
2024-03-12T02:30:21.154Z,8.77
2024-03-12T02:32:49.635Z,8.57
2024-03-12T02:35:18.463Z,8.75
2024-03-12T02:37:46.654Z,8.98
2024-03-12T02:40:16.172Z,8.43
2024-03-12T02:42:46.401Z,8.18
2024-03-12T02:45:16.450Z,9.02
2024-03-12T02:47:45.763Z,9.02
2024-03-12T02:50:13.809Z,8.77
2024-03-12T02:52:43.099Z,8.70
2024-03-12T02:55:11.266Z,8.50
2024-03-12T02:57:39.404Z,8.88
2024-03-12T03:00:13.976Z,9.20
2024-03-12T03:02:43.062Z,9.50
2024-03-12T03:05:12.197Z,8.85
2024-03-12T03:07:41.248Z,8.68
2024-03-12T03:10:09.593Z,9.40
2024-03-12T03:12:37.472Z,8.30
2024-03-12T03:15:06.093Z,8.73
2024-03-12T03:17:35.452Z,8.60
2024-03-12T03:20:06.073Z,8.43
2024-03-12T03:22:33.738Z,8.80
2024-03-12T03:25:01.566Z,8.40
2024-03-12T03:30:00.490Z,8.15
2024-03-12T03:32:28.419Z,8.23
2024-03-12T03:34:57.453Z,8.90
2024-03-12T03:37:27.823Z,8.45
2024-03-12T03:39:55.716Z,8.52
2024-03-12T03:42:23.716Z,8.63
2024-03-12T03:44:51.489Z,8.77
2024-03-12T03:47:19.158Z,8.60
2024-03-12T03:49:48.881Z,9.52
2024-03-12T03:52:18.834Z,9.65
2024-03-12T03:54:47.125Z,9.43
2024-03-12T03:57:14.841Z,9.55
2024-03-12T03:59:42.876Z,9.57
2024-03-12T04:02:12.425Z,9.38
2024-03-12T04:04:40.827Z,9.35
2024-03-12T04:07:08.523Z,9.30
2024-03-12T04:09:37.624Z,9.82
2024-03-12T04:12:06.413Z,10.00
2024-03-12T04:14:34.381Z,10.63
2024-03-12T04:17:05.104Z,8.90
2024-03-12T04:19:33.364Z,9.55
2024-03-12T04:22:01.175Z,10.30
2024-03-12T04:24:28.942Z,10.57
2024-03-12T04:26:57.958Z,10.25
2024-03-12T04:29:25.673Z,10.82
2024-03-12T04:32:01.865Z,10.43
2024-03-12T04:34:31.414Z,10.32
2024-03-12T04:36:59.861Z,10.40
2024-03-12T04:39:32.875Z,10.93
2024-03-12T04:42:03.799Z,10.60
2024-03-12T04:44:32.340Z,10.93
2024-03-12T04:47:00.201Z,10.43
2024-03-12T04:49:28.059Z,10.95
2024-03-12T04:51:56.309Z,11.70
2024-03-12T04:54:24.141Z,11.38
2024-03-12T04:56:52.350Z,10.70
2024-03-12T04:59:21.417Z,11.25
2024-03-12T05:01:50.629Z,11.48
2024-03-12T05:04:23.103Z,11.10
2024-03-12T05:06:52.037Z,10.95
2024-03-12T05:09:19.974Z,10.73
2024-03-12T05:11:48.854Z,11.13
2024-03-12T05:14:16.776Z,10.73
2024-03-12T05:16:45.860Z,10.90
2024-03-12T05:19:13.616Z,10.90
2024-03-12T05:21:41.587Z,10.70
2024-03-12T05:24:10.141Z,9.90
2024-03-12T05:26:45.269Z,10.75
2024-03-12T05:29:13.633Z,10.45
2024-03-12T05:31:41.766Z,10.32
2024-03-12T05:34:17.592Z,10.38
2024-03-12T05:36:49.560Z,10.25
2024-03-12T05:42:06.304Z,10.50
2024-03-12T05:44:51.480Z,10.70
2024-03-12T05:47:36.864Z,10.60
2024-03-12T05:50:09.010Z,10.40
2024-03-12T05:55:04.934Z,9.77
2024-03-12T05:57:34.800Z,10.27
2024-03-12T06:00:05.192Z,9.57
2024-03-12T06:02:32.965Z,9.73
2024-03-12T06:05:00.626Z,9.50
2024-03-12T06:07:29.656Z,9.63
2024-03-12T06:09:57.380Z,9.32
2024-03-12T06:12:25.108Z,9.95
2024-03-12T06:14:52.791Z,9.98
2024-03-12T06:17:20.499Z,10.25
2024-03-12T06:19:49.218Z,9.38
2024-03-12T06:22:18.236Z,9.30
2024-03-12T06:24:49.311Z,9.60
2024-03-12T06:27:19.346Z,9.48
2024-03-12T06:29:50.720Z,9.80
2024-03-12T06:32:20.565Z,9.02
2024-03-12T06:34:48.703Z,9.13
2024-03-12T06:37:16.680Z,9.60
2024-03-12T06:39:45.785Z,9.20
2024-03-12T06:42:14.960Z,8.88
2024-03-12T06:44:44.968Z,8.82
2024-03-12T06:47:13.449Z,9.50
2024-03-12T06:49:45.466Z,9.35
2024-03-12T06:52:13.429Z,10.07
2024-03-12T06:54:41.178Z,9.20
2024-03-12T06:57:12.181Z,8.57
2024-03-12T06:59:44.831Z,8.80
2024-03-12T07:02:13.328Z,9.40
2024-03-12T07:04:47.244Z,9.10
2024-03-12T07:07:19.599Z,9.82
2024-03-12T07:09:47.598Z,9.60
2024-03-12T07:12:17.578Z,9.23
2024-03-12T07:14:55.804Z,8.95
2024-03-12T07:17:24.307Z,9.35
2024-03-12T07:19:52.405Z,10.30
2024-03-12T07:22:20.160Z,9.43
2024-03-12T07:24:48.418Z,9.07
2024-03-12T07:27:16.373Z,8.52
2024-03-12T07:29:44.964Z,8.73
2024-03-12T07:32:14.907Z,9.23
2024-03-12T07:34:43.489Z,8.68
2024-03-12T07:37:14.459Z,8.80
2024-03-12T07:39:43.016Z,9.10
2024-03-12T07:42:15.387Z,9.25
2024-03-12T07:44:43.344Z,9.93
2024-03-12T07:47:11.844Z,9.57
2024-03-12T07:49:42.835Z,8.98
2024-03-12T07:52:12.747Z,8.52
2024-03-12T07:54:41.043Z,9.10
2024-03-12T07:57:09.873Z,8.80
2024-03-12T07:59:37.706Z,8.73
2024-03-12T08:02:12.279Z,8.98
2024-03-12T08:04:43.625Z,8.80
2024-03-12T08:07:12.298Z,6.43
2024-03-12T08:09:40.264Z,8.82
2024-03-12T08:12:08.831Z,8.77
2024-03-12T08:14:36.761Z,8.38
2024-03-12T08:17:06.488Z,8.00
2024-03-12T08:19:35.052Z,9.05
2024-03-12T08:22:04.877Z,8.45
2024-03-12T08:24:33.488Z,16.60
2024-03-12T08:27:01.229Z,14.30
2024-03-12T08:29:28.911Z,10.63
2024-03-12T08:32:00.300Z,11.65
2024-03-12T08:34:29.078Z,9.73
2024-03-12T08:36:57.673Z,9.27
2024-03-12T08:39:29.407Z,8.60
2024-03-12T08:44:25.402Z,8.73
2024-03-12T08:46:53.143Z,8.35
2024-03-12T08:49:21.703Z,8.80
2024-03-12T08:51:49.464Z,8.52
2024-03-12T08:54:18.046Z,8.30
2024-03-12T08:56:47.098Z,8.32
2024-03-12T08:59:15.102Z,8.65
2024-03-12T09:01:44.830Z,8.95
2024-03-12T09:04:13.270Z,8.52
2024-03-12T09:06:42.197Z,11.05
2024-03-12T09:09:10.051Z,9.23
2024-03-12T09:11:39.894Z,9.80
2024-03-12T09:14:09.124Z,8.48
2024-03-12T09:16:37.330Z,8.77
2024-03-12T09:19:06.068Z,8.85
2024-03-12T09:21:35.501Z,8.52
2024-03-12T09:24:03.334Z,8.63
2024-03-12T09:26:31.231Z,8.50
2024-03-12T09:29:00.757Z,9.65
2024-03-12T09:31:32.975Z,8.95
2024-03-12T09:36:28.656Z,8.50
2024-03-12T09:38:56.440Z,8.82
2024-03-12T09:41:26.123Z,9.00
2024-03-12T09:43:55.110Z,9.20
2024-03-12T09:46:23.626Z,8.80
2024-03-12T09:48:53.513Z,12.77
2024-03-12T09:51:22.424Z,10.00
2024-03-12T09:53:50.564Z,8.45
2024-03-12T09:56:19.242Z,8.95
2024-03-12T09:58:48.828Z,10.07
2024-03-12T10:01:16.816Z,9.90
2024-03-12T10:03:47.457Z,9.52
2024-03-12T10:06:17.890Z,10.20
2024-03-12T10:08:46.214Z,9.48
2024-03-12T10:11:20.773Z,8.70
2024-03-12T10:13:55.192Z,8.63
2024-03-12T10:16:25.931Z,8.95
2024-03-12T10:19:08.188Z,8.10
2024-03-12T10:24:15.468Z,8.30
2024-03-12T10:26:43.830Z,7.45
2024-03-12T10:29:12.527Z,7.85
2024-03-12T10:31:47.765Z,8.20
2024-03-12T10:34:18.961Z,7.88
2024-03-12T10:36:50.712Z,7.88
2024-03-12T10:39:27.305Z,7.80
2024-03-12T10:41:57.920Z,7.63
2024-03-12T10:44:25.865Z,7.57
2024-03-12T10:46:53.933Z,8.25
2024-03-12T10:49:25.660Z,7.47
2024-03-12T10:51:57.401Z,8.13
2024-03-12T10:54:25.228Z,7.75
2024-03-12T10:56:53.034Z,7.90
2024-03-12T10:59:22.520Z,7.75
2024-03-12T11:01:50.402Z,8.13
2024-03-12T11:04:18.506Z,7.80
2024-03-12T11:06:49.004Z,7.78
2024-03-12T11:09:22.575Z,7.90
2024-03-12T11:11:50.670Z,8.55
2024-03-12T11:14:18.504Z,7.70
2024-03-12T11:16:46.223Z,8.15
2024-03-12T11:19:22.206Z,8.02
2024-03-12T11:21:50.986Z,7.82
2024-03-12T11:24:30.738Z,7.90
2024-03-12T11:27:00.989Z,7.90
2024-03-12T11:30:09.897Z,7.88
2024-03-12T11:32:38.502Z,8.15
2024-03-12T11:35:09.346Z,8.65
2024-03-12T11:37:37.495Z,7.82
2024-03-12T11:40:28.370Z,8.02
2024-03-12T11:42:57.135Z,7.93
2024-03-12T11:45:41.767Z,7.90
2024-03-12T11:48:09.760Z,8.07
2024-03-12T11:50:40.800Z,8.10
2024-03-12T11:53:15.623Z,7.80
2024-03-12T11:56:02.915Z,7.90
2024-03-12T11:58:33.669Z,8.18
2024-03-12T12:01:01.285Z,7.93
2024-03-12T12:03:29.275Z,7.93
2024-03-12T12:05:57.122Z,8.13
2024-03-12T12:08:27.284Z,7.78
2024-03-12T12:11:01.360Z,8.10
2024-03-12T12:13:29.477Z,8.60
2024-03-12T12:15:58.818Z,8.02
2024-03-12T12:18:26.995Z,8.10
2024-03-12T12:20:55.597Z,7.90
2024-03-12T12:23:24.260Z,8.05
2024-03-12T12:25:55.291Z,8.13
2024-03-12T12:28:26.420Z,7.93
2024-03-12T12:30:56.746Z,8.35
2024-03-12T12:33:26.436Z,8.77
2024-03-12T12:35:55.478Z,8.25
2024-03-12T12:38:24.725Z,8.30
2024-03-12T12:40:54.753Z,8.60
2024-03-12T12:43:22.932Z,8.35
2024-03-12T12:45:55.168Z,8.55
2024-03-12T12:50:54.898Z,8.65
2024-03-12T12:53:22.810Z,8.13
2024-03-12T12:55:57.359Z,8.25
2024-03-12T12:58:26.550Z,8.75
2024-03-12T13:01:03.242Z,8.45
2024-03-12T13:03:36.154Z,8.38
2024-03-12T13:06:16.815Z,8.30
2024-03-12T13:08:45.792Z,8.88
2024-03-12T13:11:14.584Z,8.77
2024-03-12T13:13:43.005Z,8.75
2024-03-12T13:16:15.567Z,9.35
2024-03-12T13:18:46.089Z,8.55
2024-03-12T13:21:15.773Z,9.00
2024-03-12T13:23:46.195Z,9.05
2024-03-12T13:26:15.041Z,8.98
2024-03-12T13:28:42.913Z,8.85
2024-03-12T13:31:12.433Z,9.70
2024-03-12T13:33:41.538Z,9.30
2024-03-12T13:36:11.394Z,8.65
2024-03-12T13:38:40.760Z,9.32
2024-03-12T13:41:08.890Z,8.88
2024-03-12T13:43:37.343Z,8.95
2024-03-12T13:46:06.792Z,9.55
2024-03-12T13:48:37.798Z,9.27
2024-03-12T13:51:08.674Z,9.02
2024-03-12T13:53:37.599Z,9.20
2024-03-12T13:56:06.553Z,10.15
2024-03-12T13:58:34.530Z,9.93
2024-03-12T14:01:02.806Z,9.85
2024-03-12T14:03:31.861Z,9.75
2024-03-12T14:06:03.671Z,10.05
2024-03-12T14:08:32.288Z,10.05
2024-03-12T14:11:00.040Z,10.05
2024-03-12T14:13:28.323Z,9.25
2024-03-12T14:15:57.231Z,10.25
2024-03-12T14:18:27.264Z,10.05
2024-03-12T14:20:56.176Z,10.35
2024-03-12T14:23:25.391Z,10.45
2024-03-12T14:25:54.263Z,9.73
2024-03-12T14:28:22.215Z,10.45
2024-03-12T14:30:50.087Z,10.23
2024-03-12T14:33:17.812Z,10.95
2024-03-12T14:35:45.558Z,10.65
2024-03-12T14:38:13.416Z,10.40
2024-03-12T14:40:42.693Z,10.90
2024-03-12T14:43:12.172Z,10.05
2024-03-12T14:45:40.059Z,10.07
2024-03-12T14:48:09.144Z,9.98
2024-03-12T14:50:36.945Z,11.18
2024-03-12T14:53:04.994Z,10.32
2024-03-12T14:55:32.990Z,11.00
2024-03-12T14:58:02.221Z,10.38
2024-03-12T15:00:30.622Z,10.60
2024-03-12T15:02:58.288Z,10.18
2024-03-12T15:05:25.958Z,10.52
2024-03-12T15:07:53.874Z,10.77
2024-03-12T15:10:22.666Z,11.10
2024-03-12T15:12:52.671Z,10.65
2024-03-12T15:15:21.741Z,10.02
2024-03-12T15:17:49.872Z,10.23
2024-03-12T15:20:17.580Z,10.68
2024-03-12T15:22:46.426Z,9.68
2024-03-12T15:25:16.226Z,10.27
2024-03-12T15:27:44.046Z,10.80
2024-03-12T15:30:12.945Z,11.52
2024-03-12T15:32:42.748Z,10.30
2024-03-12T15:35:11.892Z,10.32
2024-03-12T15:37:39.744Z,10.27
2024-03-12T15:40:09.643Z,10.18
2024-03-12T15:42:39.943Z,10.10
2024-03-12T15:45:11.784Z,7.00
2024-03-12T15:47:40.791Z,10.15
2024-03-12T15:50:12.719Z,10.07
2024-03-12T15:52:40.459Z,10.02
2024-03-12T15:55:11.133Z,11.40
2024-03-12T15:57:40.304Z,10.13
2024-03-12T16:00:20.560Z,10.02
2024-03-12T16:02:48.812Z,10.23
2024-03-12T16:05:16.516Z,9.98
2024-03-12T16:07:43.285Z,10.52
2024-03-12T16:10:11.425Z,10.30
2024-03-12T16:12:41.699Z,10.45
2024-03-12T16:15:12.298Z,10.27
2024-03-12T16:17:41.424Z,10.50
2024-03-12T16:20:13.579Z,10.07
2024-03-12T16:22:41.993Z,9.98
2024-03-12T16:25:10.476Z,10.45
2024-03-12T16:27:40.453Z,8.98
2024-03-12T16:30:10.978Z,8.35
2024-03-12T16:32:41.503Z,8.77
2024-03-12T16:35:10.167Z,8.82
2024-03-12T16:37:39.200Z,9.10
2024-03-12T16:40:09.039Z,8.80
2024-03-12T16:42:37.223Z,9.40
2024-03-12T16:45:06.545Z,9.38
2024-03-12T16:47:34.427Z,9.65
2024-03-12T16:50:05.818Z,9.85
2024-03-12T16:52:33.610Z,10.30
2024-03-12T16:55:02.087Z,10.75
2024-03-12T16:57:30.338Z,9.95
2024-03-12T16:59:58.583Z,12.43
2024-03-12T17:02:30.409Z,9.25
2024-03-12T17:05:00.080Z,10.48
2024-03-12T17:07:31.876Z,9.93
2024-03-12T17:10:00.200Z,9.10
2024-03-12T17:12:30.299Z,9.88
2024-03-12T17:14:58.506Z,10.00
2024-03-12T17:17:27.086Z,10.35
2024-03-12T17:19:55.501Z,10.60
2024-03-12T17:22:26.588Z,10.25
2024-03-12T17:24:56.961Z,10.30
2024-03-12T17:27:25.609Z,10.07
2024-03-12T17:29:55.024Z,10.25
2024-03-12T17:32:23.322Z,12.13
2024-03-12T17:34:51.591Z,12.52
2024-03-12T17:37:21.486Z,10.63
2024-03-12T17:39:49.729Z,10.50
2024-03-12T17:42:21.247Z,10.07
2024-03-12T17:44:49.763Z,11.60
2024-03-12T17:47:19.964Z,10.82
2024-03-12T17:49:48.653Z,10.50
2024-03-12T17:52:17.587Z,11.90
2024-03-12T17:54:46.011Z,10.18
2024-03-12T17:57:15.537Z,11.00
2024-03-12T17:59:45.848Z,11.35
2024-03-12T18:02:15.105Z,11.20
2024-03-12T18:04:43.597Z,12.02
2024-03-12T18:07:24.895Z,11.75
2024-03-12T18:09:55.770Z,11.40
2024-03-12T18:12:24.036Z,11.63
2024-03-12T18:14:53.169Z,11.95
2024-03-12T18:17:21.507Z,11.15
2024-03-12T18:19:49.249Z,15.55
2024-03-12T18:22:17.660Z,12.15
2024-03-12T18:24:45.858Z,10.35
2024-03-12T18:27:13.719Z,10.77
2024-03-12T18:29:44.167Z,11.20
2024-03-12T18:32:15.933Z,11.95
2024-03-12T18:34:43.929Z,11.35
2024-03-12T18:37:11.737Z,12.75
2024-03-12T18:39:39.529Z,13.00
2024-03-12T18:42:07.748Z,12.88
2024-03-12T18:44:35.564Z,12.80
2024-03-12T18:47:03.962Z,12.60
2024-03-12T18:49:34.991Z,14.27
2024-03-12T18:52:03.349Z,13.73
2024-03-12T18:54:31.818Z,12.75
2024-03-12T18:57:01.112Z,12.63
2024-03-12T18:59:29.231Z,12.82
2024-03-12T19:02:03.181Z,10.73
2024-03-12T19:04:34.809Z,11.48
2024-03-12T19:07:03.118Z,11.15
2024-03-12T19:09:32.535Z,11.05
2024-03-12T19:12:01.764Z,11.57
2024-03-12T19:14:31.009Z,10.45
2024-03-12T19:17:01.914Z,10.50
2024-03-12T19:19:30.590Z,9.73
2024-03-12T19:22:01.808Z,10.75
2024-03-12T19:24:29.767Z,9.90
2024-03-12T19:26:58.163Z,10.25
2024-03-12T19:29:25.884Z,10.35
2024-03-12T19:31:57.184Z,10.80
2024-03-12T19:34:26.822Z,10.85
2024-03-12T19:36:54.961Z,10.35
2024-03-12T19:39:27.196Z,10.05
2024-03-12T19:41:55.504Z,11.15
2024-03-12T19:44:23.478Z,11.35
2024-03-12T19:46:51.706Z,12.25
2024-03-12T19:49:19.957Z,11.98
2024-03-12T19:51:48.615Z,11.43
2024-03-12T19:54:17.351Z,11.18
2024-03-12T19:56:46.461Z,11.73
2024-03-12T19:59:14.910Z,11.60
2024-03-12T20:01:43.375Z,11.85
2024-03-12T20:04:12.459Z,11.45
2024-03-12T20:06:42.071Z,11.80
2024-03-12T20:09:23.195Z,12.05
2024-03-12T20:11:53.050Z,11.35
2024-03-12T20:14:24.846Z,12.02
2024-03-12T20:16:52.807Z,11.50
2024-03-12T20:19:20.712Z,12.05
2024-03-12T20:21:48.802Z,12.40
2024-03-12T20:24:17.027Z,13.02
2024-03-12T20:26:46.688Z,13.23
2024-03-12T20:29:16.800Z,12.45
2024-03-12T20:31:46.096Z,12.15
2024-03-12T20:34:13.807Z,11.98
2024-03-12T20:36:46.189Z,12.35
2024-03-12T20:39:14.027Z,11.93
2024-03-12T20:41:43.180Z,11.95
2024-03-12T20:44:10.865Z,11.50
2024-03-12T20:46:41.546Z,12.00
2024-03-12T20:49:09.439Z,12.23
2024-03-12T20:51:37.305Z,11.63
2024-03-12T20:54:05.085Z,11.95
2024-03-12T20:56:33.048Z,12.70
2024-03-12T20:59:01.836Z,12.00
2024-03-12T21:01:29.624Z,12.55
2024-03-12T21:03:58.758Z,12.10
2024-03-12T21:06:26.506Z,11.50
2024-03-12T21:08:54.206Z,12.90
2024-03-12T21:11:23.757Z,11.93
2024-03-12T21:13:52.418Z,12.93
2024-03-12T21:16:20.278Z,12.88
2024-03-12T21:18:48.800Z,12.95
2024-03-12T21:21:17.896Z,12.57
2024-03-12T21:23:46.951Z,12.98
2024-03-12T21:26:20.624Z,13.20
2024-03-12T21:28:48.585Z,12.75
2024-03-12T21:31:17.524Z,12.43
2024-03-12T21:33:45.377Z,12.55
2024-03-12T21:36:15.882Z,12.77
2024-03-12T21:38:45.003Z,12.27
2024-03-12T21:41:14.132Z,11.65
2024-03-12T21:43:41.793Z,11.85
2024-03-12T21:46:09.550Z,11.60
2024-03-12T21:48:37.268Z,11.85
2024-03-12T21:51:06.567Z,12.52
2024-03-12T21:53:34.298Z,11.32
2024-03-12T21:56:03.386Z,12.65
2024-03-12T21:58:32.722Z,12.10
2024-03-12T22:01:00.531Z,11.85
2024-03-12T22:03:28.542Z,12.02
2024-03-12T22:05:56.506Z,11.80
2024-03-12T22:08:24.630Z,12.32
2024-03-12T22:10:52.361Z,12.00
2024-03-12T22:13:28.482Z,11.68
2024-03-12T22:16:00.861Z,11.05
2024-03-12T22:18:29.303Z,11.57
2024-03-12T22:20:56.938Z,11.80
2024-03-12T22:23:28.869Z,11.98
2024-03-12T22:25:56.720Z,12.45
2024-03-12T22:28:27.640Z,12.98
2024-03-12T22:30:55.459Z,12.18
2024-03-12T22:33:23.820Z,12.10
2024-03-12T22:35:52.101Z,12.70
2024-03-12T22:38:20.276Z,13.27
2024-03-12T22:40:48.555Z,11.73
2024-03-12T22:43:16.993Z,11.90
2024-03-12T22:45:46.715Z,13.35
2024-03-12T22:48:14.660Z,14.48
2024-03-12T22:50:43.752Z,12.25
2024-03-12T22:53:12.026Z,12.95
2024-03-12T22:55:40.065Z,13.43
2024-03-12T22:58:09.288Z,13.57
2024-03-12T23:00:45.870Z,13.13
2024-03-12T23:03:15.429Z,13.20
2024-03-12T23:05:43.599Z,12.23
2024-03-12T23:08:15.235Z,11.82
2024-03-12T23:10:45.157Z,12.77
2024-03-12T23:13:14.894Z,12.18
2024-03-12T23:15:43.905Z,12.77
2024-03-12T23:18:13.030Z,12.85
2024-03-12T23:20:44.354Z,12.20
2024-03-12T23:23:12.011Z,11.90
2024-03-12T23:25:40.115Z,12.45
2024-03-12T23:28:08.182Z,11.75
2024-03-12T23:30:35.874Z,11.85
2024-03-12T23:33:03.680Z,12.15
2024-03-12T23:35:34.166Z,12.02
2024-03-12T23:38:03.724Z,12.27
2024-03-12T23:40:31.613Z,12.15
2024-03-12T23:42:59.644Z,12.48
2024-03-12T23:45:27.525Z,12.65
2024-03-12T23:47:55.555Z,12.75
2024-03-12T23:50:23.369Z,12.65
2024-03-12T23:52:51.744Z,13.00
2024-03-12T23:55:21.264Z,12.85
2024-03-12T23:57:49.753Z,11.55
